石垣島の過去48時間の天気

石垣島 (Ishigaki jima)

現在時刻: 4/26 07:21 JST (4/25 22:21 UTC) 以下の時間は現地時間です。

過去48時間のMETAR気象情報
時間 風向 風速(m/s) 視程 気温(℃) 湿度(%) 気圧(hPa) 天気現象
26 07:00 3 10km以上 19 83 1014
26 06:00 2 10km以上 19 83 1013
25 20:00 北北東 3 10km以上 21 73 1013
25 19:00 北北東 4 10km以上 21 78 1012
25 18:00 北北東 6 10km以上 22 73 1012
25 17:00 6 10km以上 22 73 1011
25 16:00 北北東 5 10km以上 22 73 1012
25 15:00 5 10km以上 22 78 1012
25 14:00 6 10km以上 23 73 1012
25 13:00 6 10km以上 24 69 1013
25 12:00 6 10km以上 22 78 1013
25 11:00 6 10km以上 24 74 1013
25 10:00 6 10km以上 23 78 1013
25 09:00 5 10km以上 22 83 1013
25 08:00 5 10km以上 21 88 1013
25 07:00 4 10km以上 21 88 1012
25 06:00 北北東 4 10km以上 20 100 1011
24 20:00 5 10km以上 22 100 1010 弱いしゅう雨
24 19:21 5 10km以上 22 100 1009 弱いしゅう雨
24 19:00 5 10km以上 22 100 1009 雷雨
24 18:33 5 10km以上 23 100 1009 雷雨
24 18:25 5 10km以上 23 100 1009 雷雨
24 18:18 5 10km以上 23 100 1009 強い雷雨
24 18:10 6 10km以上 23 100 1008 弱い雷雨
24 18:00 5 7,000m 23 100 1008 雷雨
24 17:42 7 7,000m 23 100 1007 雷雨
24 17:34 6 500m 23 100 1007 強い雷雨
24 17:30 北北西 7 500m 23 100 1008 強い雷雨
24 17:00 南南西 5 10km以上 26 100 1007 弱い雷雨
24 16:42 南南西 5 10km以上 26 100 1007
24 16:00 南南西 6 10km以上 26 100 1007
24 15:00 南南西 7 10km以上 28 89 1008
24 14:00 南南西 6 10km以上 27 94 1008
24 13:00 南南西 8 10km以上 28 89 1008
24 12:00 南南西 7 10km以上 29 84 1009
24 11:00 南南西 6 10km以上 28 94 1010
24 10:00 5 10km以上 27 100 1010
24 09:00 5 10km以上 26 100 1010
24 08:43 5 10km以上 26 100 1010
24 08:32 5 10km以上 26 100 1010
24 08:00 4 9,000m 25 100 1010
ROIG 252200Z 35005KT 9999 FEW030 BKN080 19/16 Q1014
ROIG 252100Z 35004KT 9999 FEW030 BKN080 19/16 Q1013
ROIG 251100Z 02005KT 9999 FEW023 BKN030 21/16 Q1013
ROIG 251000Z 02008KT 9999 FEW023 BKN033 21/17 Q1012
ROIG 250900Z 02011KT 9999 FEW024 BKN035 22/17 Q1012
ROIG 250800Z 01011KT 9999 FEW023 BKN035 22/17 Q1011
ROIG 250700Z 02010KT 9999 FEW022 SCT027 BKN035 22/17 Q1012
ROIG 250600Z 01010KT 330V030 9999 FEW022 SCT027 BKN035 22/18 Q1012
ROIG 250500Z 01011KT 330V040 9999 SCT025 BKN036 23/18 Q1012
ROIG 250400Z 01012KT 320V030 9999 SCT024 BKN038 24/18 Q1013
ROIG 250300Z 01011KT 9999 SCT023 BKN034 22/18 Q1013
ROIG 250200Z 01011KT 9999 SCT022 BKN033 24/19 Q1013
ROIG 250100Z 01012KT 9999 FEW023 BKN034 23/19 Q1013
ROIG 250000Z 01010KT 9999 FEW023 SCT026 BKN034 22/19 Q1013
ROIG 242300Z 01009KT 9999 SCT021 BKN026 21/19 Q1013
ROIG 242200Z 01007KT 9999 FEW016 BKN024 BKN040 21/19 Q1012
ROIG 242100Z 02008KT 9999 FEW014 BKN023 20/20 Q1011
ROIG 241100Z 01009KT 9999 -SHRA FEW007 SCT011 BKN090 22/22 Q1010
ROIG 241021Z 01010KT 9999 -SHRA FEW007 SCT011 BKN080 22/22 Q1009 RMK 1ST007 3CU011 6AC080 A2982
ROIG 241000Z 01009KT 9999 TSRA FEW007 SCT020 FEW025CB BKN070 22/22 Q1009
ROIG 240933Z 01010KT 9999 TSRA FEW007 SCT010 FEW025CB BKN030 23/23 Q1009 RMK 1ST007 3CU010 2CB025 5CU030 A2980 FBL TS 10KM SE-SW MOV E
ROIG 240925Z 01010KT 9999 R04/1200VP1800U TSRA FEW006 SCT012 FEW025CB BKN030 23/23 Q1009 RMK 1ST006 3CU012 2CB025 5CU030 A2980 FBL TS 10KM SE-SW MOV E
ROIG 240918Z 36010KT 9999 R04/1200VP1800D +TSRA FEW006 SCT012 FEW025CB BKN030 23/23 Q1009 RMK 1ST006 3CU012 1CB025 5CU030 A2980 FBL TS 10KM S MOV E
ROIG 240910Z 01011KT 9999 -TSRA FEW006 SCT012 FEW025CB BKN030 23/23 Q1008 RMK 1ST006 3CU012 1CB025 5CU030 A2979 P/RR FBL TS 10KM S MOV E
ROIG 240900Z 36010KT 7000 R04/1100VP1800D TSRA FEW006 SCT012 FEW025CB BKN030 23/23 Q1008
ROIG 240842Z 36013KT 7000 R04/0600VP1800U TSRA FEW006 SCT020 FEW025CB BKN030 23/23 Q1007 RMK 1ST006 3CU020 1CB025 5CU030 A2976 FBL TS OHD MOV E
ROIG 240834Z 36012KT 0500 R04/0400V1800D +TSRA FEW006 SCT020 FEW025CB BKN030 23/23 Q1007 RMK 1ST006 3CU020 1CB025 5CU030 A2975 FBL TS OHD MOV E
ROIG 240830Z 33013G29KT 290V010 0500 R04/0550VP1800D +TSRA FEW006 SCT020 FEW025CB BKN030 23/23 Q1008 RMK 1ST006 3CU020 1CB025 5CU030 A2978 FBL TS OHD MOV E RI++
ROIG 240800Z 20009KT 9999 -TSRA FEW009 SCT020 FEW025CB BKN030 26/26 Q1007
ROIG 240742Z 20010KT 9999 TS FEW009 SCT012 FEW025CB BKN030 26/26 Q1007 RMK 1CU009 3CU012 1CB025 5CU030 A2974 CB 10KM NW MOV E
ROIG 240700Z 21012KT 9999 FEW009 SCT012 BKN032 26/26 Q1007
ROIG 240600Z 20014KT 9999 FEW009 SCT015 BKN036 28/26 Q1008
ROIG 240500Z 21012KT 9999 FEW009 SCT015 BKN048 27/26 Q1008
ROIG 240400Z 20015KT 9999 FEW010 SCT015 BKN050 28/26 Q1008
ROIG 240300Z 21014KT 9999 FEW010 SCT015 BKN/// 29/26 Q1009
ROIG 240200Z 21011KT 9999 FEW009 SCT015 BKN036 28/27 Q1010
ROIG 240100Z 19009KT 9999 FEW006 SCT014 BKN036 27/27 Q1010
ROIG 240000Z 19009KT 9999 FEW004 SCT007 BKN013 26/26 Q1010
ROIG 232343Z 18009KT 9999 FEW003 SCT005 BKN013 26/26 Q1010 RMK 2ST003 4ST005 6CU013 A2983
ROIG 232332Z 19009KT 9999 FEW003 BKN005 BKN011 26/26 Q1010 RMK 2ST003 5ST005 6CU011 A2982
ROIG 232300Z 18008KT 9000 FEW002 BKN003 25/25 Q1010